Time;durP1;ratioP1;P1;durP2;ratioP2;P2;SDS_P1;SDS_P2;PMS_P1;PMS_P2;Temp;Humidity;BMP_temperature;BMP_pressure;BME280_temperature;BME280_humidity;BME280_pressure;Samples;Min_cycle;Max_cycle;Signal;HPM_P1;HPM_P2
2021/07/15 00:00:42;;;;;;;13.32;8.00;;;;;;;20.87;100.00;100908.72;1651177;85;21054;-86
2021/07/15 00:03:13;;;;;;;11.53;8.13;;;;;;;20.80;100.00;100909.39;1651969;85;21101;-87
2021/07/15 00:05:41;;;;;;;10.23;7.83;;;;;;;20.74;100.00;100918.04;1650980;85;21082;-87
2021/07/15 00:08:12;;;;;;;14.25;7.25;;;;;;;20.71;100.00;100915.70;1675463;85;21035;-87
2021/07/15 00:10:48;;;;;;;12.60;7.47;;;;;;;20.66;100.00;100918.06;1675404;85;21149;-86
2021/07/15 00:13:17;;;;;;;13.08;7.62;;;;;;;20.64;100.00;100914.28;1670414;85;21043;-88
2021/07/15 00:15:49;;;;;;;9.78;7.00;;;;;;;20.63;100.00;100913.13;1651183;85;21085;-86
2021/07/15 00:18:21;;;;;;;19.17;7.75;;;;;;;20.58;100.00;100913.66;1653625;85;20955;-85
2021/07/15 00:20:49;;;;;;;12.73;7.80;;;;;;;20.55;100.00;100913.19;1653291;85;21042;-86
2021/07/15 00:23:16;;;;;;;14.93;7.62;;;;;;;20.51;100.00;100913.19;1675799;85;21061;-86
2021/07/15 00:25:47;;;;;;;10.43;6.72;;;;;;;20.51;100.00;100909.22;1675313;85;21090;-86
2021/07/15 00:28:15;;;;;;;13.53;6.80;;;;;;;20.49;100.00;100911.54;1651114;85;21823;-86
2021/07/15 00:30:43;;;;;;;13.65;7.70;;;;;;;20.46;100.00;100907.94;1675270;85;21059;-86
2021/07/15 00:33:10;;;;;;;15.78;7.10;;;;;;;20.43;100.00;100912.23;1647919;85;21066;-88
2021/07/15 00:35:40;;;;;;;12.20;6.83;;;;;;;20.39;100.00;100909.59;1675419;85;21062;-88
2021/07/15 00:38:08;;;;;;;13.70;8.20;;;;;;;20.33;100.00;100916.91;1675602;85;21098;-89
2021/07/15 00:40:38;;;;;;;11.70;7.20;;;;;;;20.26;100.00;100922.56;1675206;85;21159;-87
2021/07/15 00:43:06;;;;;;;15.18;7.55;;;;;;;20.23;100.00;100920.28;1675536;85;21035;-87
2021/07/15 00:45:34;;;;;;;14.03;8.00;;;;;;;20.18;100.00;100917.63;1675395;85;21034;-86
2021/07/15 00:48:01;;;;;;;12.88;7.30;;;;;;;20.14;100.00;100916.34;1675299;85;21099;-87
2021/07/15 00:50:33;;;;;;;9.28;7.65;;;;;;;20.14;100.00;100916.83;1675409;85;21070;-86
2021/07/15 00:53:03;;;;;;;17.95;7.85;;;;;;;20.15;100.00;100918.48;1651153;85;21074;-86
2021/07/15 00:55:38;;;;;;;17.52;7.40;;;;;;;20.17;100.00;100913.34;1675253;85;21015;-86
2021/07/15 00:58:11;;;;;;;15.40;8.15;;;;;;;20.22;100.00;100905.41;1675238;85;21860;-88
2021/07/15 01:00:42;;;;;;;13.43;8.15;;;;;;;20.26;100.00;100903.57;1677053;85;21059;-86
2021/07/15 01:03:10;;;;;;;15.05;7.75;;;;;;;20.31;100.00;100902.55;1650685;85;21577;-87
2021/07/15 01:05:41;;;;;;;12.37;7.72;;;;;;;20.32;100.00;100900.23;1651200;85;22235;-86
2021/07/15 01:08:10;;;;;;;14.05;8.43;;;;;;;20.31;100.00;100907.02;1675240;85;21566;-86
2021/07/15 01:10:42;;;;;;;17.15;8.05;;;;;;;20.27;100.00;100909.67;1675554;85;21114;-88
2021/07/15 01:13:49;;;;;;;12.55;7.40;;;;;;;20.16;100.00;100906.40;1674044;85;21023;-87
2021/07/15 01:16:29;;;;;;;14.20;7.22;;;;;;;20.13;100.00;100919.98;1650910;85;21051;-86
2021/07/15 01:19:04;;;;;;;16.23;7.78;;;;;;;20.10;100.00;100912.38;1653640;85;21089;-87
2021/07/15 01:21:53;;;;;;;12.07;6.78;;;;;;;20.09;100.00;100907.27;1640555;85;21566;-88
2021/07/15 01:24:45;;;;;;;17.07;7.30;;;;;;;20.07;100.00;100909.25;1675594;85;21517;-87
2021/07/15 01:27:51;;;;;;;14.28;7.05;;;;;;;20.03;100.00;100911.41;1675456;85;21051;-86
2021/07/15 01:30:26;;;;;;;9.85;6.10;;;;;;;19.97;100.00;100913.42;1647669;85;21030;-88
2021/07/15 01:33:22;;;;;;;8.93;6.30;;;;;;;19.89;100.00;100910.80;1675168;85;21038;-86
2021/07/15 01:35:56;;;;;;;19.98;6.75;;;;;;;19.82;100.00;100910.14;1674532;85;21020;-87
2021/07/15 01:38:32;;;;;;;11.70;7.08;;;;;;;19.76;100.00;100902.86;1675546;85;20991;-87
2021/07/15 01:41:16;;;;;;;12.43;7.05;;;;;;;19.70;100.00;100900.42;1672375;85;21078;-89
2021/07/15 01:43:47;;;;;;;16.42;7.53;;;;;;;19.67;100.00;100901.23;1674878;85;20995;-89
2021/07/15 01:46:16;;;;;;;16.90;6.78;;;;;;;19.69;100.00;100904.53;1674933;85;21339;-87
2021/07/15 01:48:46;;;;;;;14.33;7.05;;;;;;;19.67;100.00;100904.71;1650797;85;21114;-86
2021/07/15 01:51:14;;;;;;;11.53;7.12;;;;;;;19.64;100.00;100905.55;1650730;85;21035;-87
2021/07/15 01:53:43;;;;;;;16.97;6.53;;;;;;;19.63;100.00;100905.21;1651012;85;21054;-86
2021/07/15 01:56:11;;;;;;;37.33;8.48;;;;;;;19.62;100.00;100908.84;1675220;85;21012;-87
2021/07/15 01:58:40;;;;;;;21.68;7.03;;;;;;;19.58;100.00;100907.03;1675269;85;21150;-87
2021/07/15 02:01:10;;;;;;;32.70;7.75;;;;;;;19.53;100.00;100904.89;1675265;85;21581;-86
2021/07/15 02:03:41;;;;;;;18.27;7.95;;;;;;;19.54;100.00;100905.73;1675205;85;21047;-88
2021/07/15 02:06:11;;;;;;;15.53;7.28;;;;;;;19.58;100.00;100899.62;1651303;85;21074;-87
2021/07/15 02:08:38;;;;;;;14.58;6.95;;;;;;;19.58;100.00;100899.62;1675355;85;21205;-87
2021/07/15 02:11:09;;;;;;;9.58;6.00;;;;;;;19.57;100.00;100905.89;1675221;85;21047;-85
2021/07/15 02:13:38;;;;;;;11.57;6.40;;;;;;;19.54;100.00;100903.91;1675286;85;21549;-88
2021/07/15 02:16:07;;;;;;;12.93;6.25;;;;;;;19.55;100.00;100905.56;1651021;85;21475;-87
2021/07/15 02:18:36;;;;;;;8.40;5.95;;;;;;;19.54;100.00;100902.59;1675184;85;20992;-87
2021/07/15 02:21:04;;;;;;;7.58;5.35;;;;;;;19.51;100.00;100906.88;1631701;85;21381;-88
2021/07/15 02:23:33;;;;;;;8.08;5.35;;;;;;;19.47;100.00;100906.89;1675160;85;21035;-86
2021/07/15 02:26:02;;;;;;;16.12;5.65;;;;;;;19.42;100.00;100905.26;1650846;85;20963;-90
2021/07/15 02:28:29;;;;;;;12.53;6.55;;;;;;;19.40;100.00;100904.59;1675355;85;21602;-86
2021/07/15 02:31:08;;;;;;;16.95;6.45;;;;;;;19.38;100.00;100901.28;1675495;85;21003;-89
2021/07/15 02:33:39;;;;;;;12.50;5.70;;;;;;;19.39;100.00;100912.98;1672331;85;21573;-88
2021/07/15 02:36:07;;;;;;;13.58;6.33;;;;;;;19.40;100.00;100919.11;1675768;85;21134;-87
2021/07/15 02:38:36;;;;;;;11.55;5.80;;;;;;;19.43;100.00;100920.59;1674061;85;21643;-87
2021/07/15 02:41:03;;;;;;;9.30;5.87;;;;;;;19.46;100.00;100912.34;1648684;85;21070;-88
2021/07/15 02:43:31;;;;;;;10.90;6.33;;;;;;;19.45;100.00;100907.55;1675465;85;20972;-86
2021/07/15 02:46:00;;;;;;;10.60;6.90;;;;;;;19.45;100.00;100914.66;1675453;85;21083;-87
2021/07/15 02:48:27;;;;;;;11.60;6.58;;;;;;;19.40;100.00;100909.87;1675357;85;21765;-86
2021/07/15 02:50:56;;;;;;;13.90;6.42;;;;;;;19.36;100.00;100915.14;1675196;85;21606;-88
2021/07/15 02:53:24;;;;;;;12.80;6.53;;;;;;;19.38;100.00;100919.77;1675149;85;21586;-88
2021/07/15 02:55:56;;;;;;;8.15;6.28;;;;;;;19.43;100.00;100927.19;1675658;85;21106;-86
2021/07/15 02:58:32;;;;;;;11.00;7.00;;;;;;;19.47;100.00;100922.73;1672296;85;21035;-87
2021/07/15 03:01:02;;;;;;;13.08;6.85;;;;;;;19.52;100.00;100926.20;1650287;85;21090;-87
2021/07/15 03:03:53;;;;;;;16.60;7.33;;;;;;;19.54;100.00;100926.36;1661214;85;21019;-86
2021/07/15 03:06:36;;;;;;;13.57;7.57;;;;;;;19.59;100.00;100922.41;1640962;85;21042;-85
2021/07/15 03:09:13;;;;;;;16.48;7.95;;;;;;;19.68;100.00;100930.62;1648486;85;21022;-86
2021/07/15 03:11:50;;;;;;;17.45;8.38;;;;;;;19.73;100.00;100927.00;1642933;87;21038;-87
2021/07/15 03:14:18;;;;;;;35.15;9.23;;;;;;;19.81;100.00;100930.94;1646930;87;21136;-86
2021/07/15 03:16:47;;;;;;;40.33;9.55;;;;;;;19.90;100.00;100925.67;1628957;87;20983;-88
2021/07/15 03:19:17;;;;;;;28.47;9.60;;;;;;;20.06;100.00;100921.66;1654940;85;21192;-86
2021/07/15 03:21:46;;;;;;;26.45;9.25;;;;;;;20.26;100.00;100913.30;1645925;87;21257;-89
2021/07/15 03:24:17;;;;;;;17.17;9.10;;;;;;;20.43;100.00;100912.75;1648103;87;21086;-88
2021/07/15 03:26:47;;;;;;;16.35;8.10;;;;;;;20.59;100.00;100913.14;1649386;86;21101;-85
2021/07/15 03:29:15;;;;;;;11.35;7.92;;;;;;;20.74;100.00;100922.01;1619968;87;21062;-87
2021/07/15 03:31:42;;;;;;;14.58;9.08;;;;;;;20.86;100.00;100917.65;1648757;87;21145;-87
2021/07/15 03:34:11;;;;;;;12.13;8.18;;;;;;;20.96;100.00;100916.89;1648053;87;21071;-87
2021/07/15 03:36:41;;;;;;;21.07;8.53;;;;;;;21.03;100.00;100916.50;1648235;86;21034;-89
2021/07/15 03:39:08;;;;;;;11.12;7.80;;;;;;;21.15;100.00;100913.45;1647493;86;21179;-88
2021/07/15 03:41:36;;;;;;;19.17;8.38;;;;;;;21.25;100.00;100916.69;1648420;85;21022;-86
2021/07/15 03:44:03;;;;;;;11.10;8.65;;;;;;;21.35;100.00;100921.21;1648381;85;21054;-84
2021/07/15 03:46:33;;;;;;;15.65;8.23;;;;;;;21.44;100.00;100929.41;1647860;87;21502;-84
2021/07/15 03:49:02;;;;;;;11.95;7.80;;;;;;;21.51;100.00;100927.39;1629333;86;21054;-85
2021/07/15 03:51:29;;;;;;;11.10;7.42;;;;;;;21.52;100.00;100929.84;1629636;86;21134;-84
2021/07/15 03:53:58;;;;;;;13.18;7.87;;;;;;;21.55;100.00;100930.80;1629253;88;21110;-84
2021/07/15 03:56:29;;;;;;;10.95;7.95;;;;;;;21.59;100.00;100934.78;1629350;86;21109;-84
2021/07/15 03:59:01;;;;;;;8.48;7.08;;;;;;;21.63;100.00;100931.27;1629314;87;21553;-85
2021/07/15 04:01:31;;;;;;;10.95;8.05;;;;;;;21.64;100.00;100928.94;1629415;88;21087;-83
2021/07/15 04:04:03;;;;;;;9.17;7.67;;;;;;;21.65;100.00;100931.07;1629595;88;21155;-86
2021/07/15 04:06:31;;;;;;;12.30;7.08;;;;;;;21.64;100.00;100934.72;1616473;86;21036;-85
2021/07/15 04:09:02;;;;;;;9.30;7.17;;;;;;;21.65;100.00;100933.72;1644472;85;21027;-84
2021/07/15 04:11:31;;;;;;;13.40;7.33;;;;;;;21.68;100.00;100934.19;1661658;85;21062;-84
2021/07/15 04:13:59;;;;;;;10.78;7.35;;;;;;;21.72;100.00;100929.34;1642427;85;21683;-84
2021/07/15 04:17:05;;;;;;;13.38;7.25;;;;;;;21.73;100.00;100930.51;1662070;85;21139;-84
2021/07/15 04:19:34;;;;;;;8.90;7.55;;;;;;;21.77;100.00;100935.42;1661834;85;21122;-84
2021/07/15 04:22:06;;;;;;;13.05;7.80;;;;;;;21.82;100.00;100939.19;1661738;85;21454;-85
2021/07/15 04:24:34;;;;;;;12.63;7.65;;;;;;;21.87;100.00;100937.31;1661925;85;21564;-83
2021/07/15 04:27:05;;;;;;;10.08;6.90;;;;;;;21.91;100.00;100934.63;1661874;85;21039;-83
2021/07/15 04:29:35;;;;;;;10.43;7.53;;;;;;;21.98;100.00;100934.70;1661947;85;21082;-83
2021/07/15 04:32:26;;;;;;;15.88;8.13;;;;;;;22.03;100.00;100934.48;1661860;85;21018;-84
2021/07/15 04:34:58;;;;;;;13.45;8.05;;;;;;;22.10;100.00;100935.06;1662126;85;21016;-84
2021/07/15 04:37:27;;;;;;;10.90;7.45;;;;;;;22.20;100.00;100935.09;1661739;85;21057;-84
2021/07/15 04:39:55;;;;;;;13.48;7.92;;;;;;;22.29;100.00;100938.48;1661800;85;21022;-84
2021/07/15 04:42:25;;;;;;;10.98;7.40;;;;;;;22.38;100.00;100937.88;1643053;85;21617;-83
2021/07/15 04:44:52;;;;;;;13.75;7.72;;;;;;;22.47;100.00;100935.47;1661623;85;21501;-84
2021/07/15 04:47:21;;;;;;;11.83;7.37;;;;;;;22.57;100.00;100936.48;1643828;85;21758;-84
2021/07/15 04:49:49;;;;;;;10.45;7.60;;;;;;;22.67;100.00;100941.52;1669471;85;21091;-84
2021/07/15 04:52:18;;;;;;;11.05;7.17;;;;;;;22.75;100.00;100941.88;1650704;85;21059;-84
2021/07/15 04:54:46;;;;;;;9.58;7.42;;;;;;;22.83;100.00;100935.13;1659685;85;21812;-84
2021/07/15 04:57:14;;;;;;;14.35;7.22;;;;;;;22.92;100.00;100939.31;1666893;85;21102;-83
2021/07/15 04:59:42;;;;;;;15.85;6.70;;;;;;;23.03;100.00;100939.83;1669141;85;21086;-83
2021/07/15 05:02:10;;;;;;;9.08;6.53;;;;;;;23.13;100.00;100946.95;1665631;85;21024;-84
2021/07/15 05:04:37;;;;;;;11.88;6.42;;;;;;;23.23;100.00;100946.16;1624411;87;21066;-83
2021/07/15 05:07:05;;;;;;;8.65;6.85;;;;;;;23.35;100.00;100946.98;1654311;85;21144;-84
2021/07/15 05:09:33;;;;;;;7.37;6.67;;;;;;;23.46;100.00;100945.95;1654429;85;20983;-83
2021/07/15 05:12:02;;;;;;;10.70;6.47;;;;;;;23.55;100.00;100941.30;1670708;85;21083;-84
2021/07/15 05:14:31;;;;;;;10.45;6.85;;;;;;;23.65;100.00;100942.27;1675297;85;21067;-84
2021/07/15 05:16:58;;;;;;;8.43;7.22;;;;;;;23.71;100.00;100938.02;1653486;85;21660;-84
2021/07/15 05:19:27;;;;;;;11.88;6.78;;;;;;;23.78;100.00;100940.22;1661642;85;21051;-83
2021/07/15 05:21:54;;;;;;;12.33;7.25;;;;;;;23.86;100.00;100948.03;1653377;85;21042;-83
2021/07/15 05:24:22;;;;;;;10.23;6.50;;;;;;;23.93;100.00;100944.94;1651340;84;21027;-83
2021/07/15 05:26:49;;;;;;;11.90;7.05;;;;;;;24.00;100.00;100944.98;1650730;85;21130;-83
2021/07/15 05:29:16;;;;;;;14.00;6.85;;;;;;;24.08;100.00;100942.16;1646810;85;21013;-82
2021/07/15 05:31:44;;;;;;;19.82;7.62;;;;;;;24.16;100.00;100940.35;1646860;86;21060;-84
2021/07/15 05:34:14;;;;;;;13.28;6.97;;;;;;;24.24;100.00;100943.65;1629439;87;21055;-85
2021/07/15 05:36:41;;;;;;;14.60;8.43;;;;;;;24.33;100.00;100949.64;1647471;87;20995;-84
2021/07/15 05:39:10;;;;;;;16.27;7.92;;;;;;;24.38;100.00;100944.53;1646918;87;21012;-83
2021/07/15 05:41:39;;;;;;;14.47;7.30;;;;;;;24.48;100.00;100948.66;1646543;85;21027;-85
2021/07/15 05:44:06;;;;;;;16.07;10.20;;;;;;;24.58;100.00;100949.11;1629022;87;21120;-84
2021/07/15 05:46:34;;;;;;;10.95;8.15;;;;;;;24.67;100.00;100947.11;1648095;85;21126;-89
2021/07/15 05:49:01;;;;;;;16.48;7.92;;;;;;;24.75;100.00;100950.11;1629341;87;21058;-83
2021/07/15 05:51:28;;;;;;;13.48;7.42;;;;;;;24.83;100.00;100947.27;1647200;87;21050;-84
2021/07/15 05:53:56;;;;;;;13.70;7.72;;;;;;;24.94;100.00;100947.17;1646753;85;20994;-84
2021/07/15 05:56:23;;;;;;;8.18;6.78;;;;;;;25.03;100.00;100945.96;1647084;85;21811;-86
2021/07/15 05:58:50;;;;;;;10.23;8.13;;;;;;;25.13;100.00;100937.55;1629010;87;21074;-83
2021/07/15 06:01:19;;;;;;;11.08;7.75;;;;;;;25.22;100.00;100942.16;1634738;85;21106;-85
2021/07/15 06:03:47;;;;;;;8.95;6.83;;;;;;;25.31;100.00;100938.27;1639127;85;21054;-85
2021/07/15 06:06:15;;;;;;;12.88;7.20;;;;;;;25.37;100.00;100934.77;1650880;85;21035;-86
2021/07/15 06:08:42;;;;;;;15.58;8.55;;;;;;;25.45;100.00;100928.45;1675513;85;21201;-87
2021/07/15 06:11:11;;;;;;;12.95;7.65;;;;;;;25.55;100.00;100925.36;1675279;85;21058;-82
2021/07/15 06:13:39;;;;;;;11.00;7.05;;;;;;;25.62;100.00;100931.00;1675349;85;21050;-84
2021/07/15 06:16:06;;;;;;;8.28;6.92;;;;;;;25.73;100.00;100928.70;1674996;85;21597;-88
2021/07/15 06:18:34;;;;;;;10.72;7.60;;;;;;;25.81;100.00;100921.31;1675213;85;21035;-85
2021/07/15 06:21:02;;;;;;;12.93;7.47;;;;;;;25.90;100.00;100916.56;1653583;85;21223;-85
2021/07/15 06:23:32;;;;;;;10.80;7.92;;;;;;;26.02;100.00;100918.58;1675301;85;21067;-84
2021/07/15 06:26:01;;;;;;;13.28;7.90;;;;;;;26.13;100.00;100920.61;1654163;85;21075;-87
2021/07/15 06:28:30;;;;;;;23.25;9.98;;;;;;;26.25;100.00;100919.42;1675570;85;21066;-85
2021/07/15 06:30:58;;;;;;;14.95;10.38;;;;;;;26.34;100.00;100912.01;1675370;85;21126;-84
2021/07/15 06:33:26;;;;;;;20.32;9.78;;;;;;;26.45;100.00;100909.48;1651287;85;21055;-87
2021/07/15 06:35:53;;;;;;;14.40;9.50;;;;;;;26.59;100.00;100921.41;1650840;85;21011;-85
2021/07/15 06:38:21;;;;;;;16.60;10.98;;;;;;;26.72;100.00;100918.64;1649792;85;21034;-86
2021/07/15 06:40:56;;;;;;;15.48;8.98;;;;;;;26.84;100.00;100920.14;1643037;85;21039;-85
2021/07/15 06:43:23;;;;;;;14.43;7.45;;;;;;;26.97;100.00;100913.88;1664257;85;21463;-87
2021/07/15 06:45:52;;;;;;;11.80;7.20;;;;;;;27.10;100.00;100914.83;1620189;87;21345;-87
2021/07/15 06:48:19;;;;;;;8.75;6.47;;;;;;;27.18;100.00;100912.69;1647056;87;21031;-87
2021/07/15 06:50:47;;;;;;;11.12;5.97;;;;;;;27.28;100.00;100910.84;1646871;86;21011;-87
2021/07/15 06:53:15;;;;;;;10.03;5.85;;;;;;;27.40;100.00;100911.77;1629513;87;21067;-87
2021/07/15 06:55:43;;;;;;;7.92;5.05;;;;;;;27.55;100.00;100911.97;1607647;87;21034;-86
2021/07/15 06:58:11;;;;;;;7.37;4.55;;;;;;;27.70;100.00;100910.28;1629212;87;21323;-86
2021/07/15 07:00:38;;;;;;;6.40;4.58;;;;;;;27.80;100.00;100909.22;1653686;86;21078;-86
2021/07/15 07:03:06;;;;;;;8.50;4.33;;;;;;;27.92;100.00;100905.30;1651216;85;21383;-85
2021/07/15 07:05:33;;;;;;;4.15;3.70;;;;;;;28.04;100.00;100912.05;1649801;86;21045;-86
2021/07/15 07:08:00;;;;;;;4.37;3.50;;;;;;;28.15;95.75;100903.81;1635546;86;21072;-85
2021/07/15 07:10:28;;;;;;;9.68;4.03;;;;;;;28.26;80.49;100902.23;1629932;86;21022;-86
2021/07/15 07:12:56;;;;;;;6.30;3.92;;;;;;;28.40;87.22;100907.69;1627886;86;21466;-85
2021/07/15 07:15:23;;;;;;;5.75;3.72;;;;;;;28.54;82.60;100900.28;1627732;86;21183;-85
2021/07/15 07:17:51;;;;;;;4.80;3.65;;;;;;;28.69;73.24;100901.18;1631702;86;21098;-85
2021/07/15 07:20:18;;;;;;;7.35;4.30;;;;;;;28.80;77.63;100891.59;1653119;85;21505;-86
2021/07/15 07:22:47;;;;;;;5.47;3.80;;;;;;;28.92;67.42;100892.41;1662036;85;21869;-85
2021/07/15 07:25:15;;;;;;;5.25;4.00;;;;;;;29.06;61.17;100890.84;1660316;85;21127;-85
2021/07/15 07:27:43;;;;;;;6.50;3.60;;;;;;;29.18;66.79;100888.16;1646439;85;21062;-85
2021/07/15 07:30:14;;;;;;;7.22;3.30;;;;;;;29.32;65.05;100884.75;1638718;85;21006;-87
2021/07/15 07:32:47;;;;;;;12.82;4.12;;;;;;;29.45;59.53;100885.03;1663858;85;21100;-86
2021/07/15 07:35:15;;;;;;;4.97;3.62;;;;;;;29.57;54.29;100883.97;1647909;84;21085;-87
2021/07/15 07:37:44;;;;;;;10.40;4.33;;;;;;;29.67;56.23;100882.02;1648573;85;21067;-89
2021/07/15 07:40:17;;;;;;;5.17;4.10;;;;;;;29.77;56.88;100887.31;1666035;84;21134;-86
2021/07/15 07:42:46;;;;;;;7.03;3.40;;;;;;;29.87;54.03;100886.19;1624599;84;21079;-86
2021/07/15 07:45:14;;;;;;;5.12;3.45;;;;;;;29.97;51.09;100879.68;1598567;88;21088;-88
2021/07/15 07:47:42;;;;;;;5.50;3.50;;;;;;;30.11;53.34;100876.20;1617200;87;21173;-87
2021/07/15 07:50:12;;;;;;;4.50;3.60;;;;;;;30.23;49.06;100872.66;1600755;88;21581;-87
2021/07/15 07:52:40;;;;;;;4.53;3.62;;;;;;;30.31;49.05;100878.98;1673564;85;21643;-87
2021/07/15 07:55:09;;;;;;;5.03;3.40;;;;;;;30.39;49.48;100881.27;1627443;85;21135;-86
2021/07/15 07:57:36;;;;;;;11.25;4.08;;;;;;;30.50;54.85;100884.95;1647575;86;21091;-88
2021/07/15 08:00:17;;;;;;;5.92;3.85;;;;;;;30.59;54.40;100884.03;1630417;87;21161;-87
2021/07/15 08:02:45;;;;;;;5.10;3.60;;;;;;;30.66;53.46;100884.69;1648179;87;21147;-86
2021/07/15 08:05:18;;;;;;;5.67;3.58;;;;;;;30.75;49.65;100876.52;1661194;85;21086;-86
2021/07/15 08:07:45;;;;;;;3.75;3.12;;;;;;;30.88;46.69;100874.03;1675808;84;21071;-85
2021/07/15 08:10:13;;;;;;;5.08;3.20;;;;;;;30.97;48.33;100875.77;1675404;85;21600;-87
2021/07/15 08:12:40;;;;;;;4.33;3.10;;;;;;;31.03;44.60;100874.80;1649908;85;21027;-86
2021/07/15 08:15:11;;;;;;;3.60;2.90;;;;;;;31.11;46.83;100876.27;1649331;85;21058;-86
2021/07/15 08:17:39;;;;;;;7.07;2.73;;;;;;;31.20;44.92;100869.42;1658965;84;21156;-86
2021/07/15 08:20:08;;;;;;;4.12;2.50;;;;;;;31.33;45.49;100866.10;1643787;85;21208;-86
2021/07/15 08:22:40;;;;;;;5.22;2.67;;;;;;;31.46;40.97;100863.04;1672681;84;21066;-87
2021/07/15 08:25:09;;;;;;;4.00;2.75;;;;;;;31.55;40.31;100866.09;1666691;85;21295;-86
2021/07/15 08:27:37;;;;;;;5.53;2.70;;;;;;;31.62;39.71;100862.69;1660852;84;21098;-87
2021/07/15 08:30:09;;;;;;;4.75;2.60;;;;;;;31.76;40.71;100860.46;1660181;85;21077;-88
2021/07/15 08:32:37;;;;;;;2.75;2.47;;;;;;;31.91;37.81;100861.97;1636368;85;21600;-88
2021/07/15 08:35:06;;;;;;;2.83;2.45;;;;;;;32.07;37.32;100863.48;1670033;85;21078;-85
2021/07/15 08:37:36;;;;;;;7.35;2.40;;;;;;;32.18;37.01;100861.70;1672879;84;21138;-86
2021/07/15 08:40:08;;;;;;;6.03;2.27;;;;;;;32.30;37.66;100862.40;1675127;85;21035;-88
2021/07/15 08:42:39;;;;;;;15.00;2.85;;;;;;;32.43;35.99;100861.17;1675233;85;21057;-86
2021/07/15 08:45:09;;;;;;;4.50;2.65;;;;;;;32.51;34.11;100860.70;1675163;85;21133;-85
2021/07/15 08:47:42;;;;;;;3.90;2.50;;;;;;;32.68;35.95;100855.71;1665446;85;21718;-85
2021/07/15 08:50:14;;;;;;;2.35;2.17;;;;;;;32.68;35.95;100855.71;1627817;85;21962;-85
2021/07/15 08:52:42;;;;;;;5.03;2.45;;;;;;;32.77;34.93;100853.33;1649266;86;21429;-86
2021/07/15 08:57:42;;;;;;;9.38;2.35;;;;;;;32.75;37.16;100852.25;1647974;84;21156;-86
2021/07/15 09:00:16;;;;;;;2.42;2.05;;;;;;;32.83;35.66;100850.97;1606747;86;21500;-87
2021/07/15 09:02:44;;;;;;;5.67;2.30;;;;;;;32.93;36.15;100855.09;1655292;85;21157;-86
2021/07/15 09:05:12;;;;;;;6.10;2.33;;;;;;;33.05;35.62;100845.45;1627773;86;21035;-87
2021/07/15 09:07:44;;;;;;;5.58;2.10;;;;;;;33.16;34.00;100850.36;1645768;84;21141;-87
2021/07/15 09:10:11;;;;;;;6.47;2.05;;;;;;;33.27;34.43;100853.92;1650954;86;21021;-85
2021/07/15 09:12:39;;;;;;;6.00;2.25;;;;;;;33.34;33.10;100852.66;1649385;86;21030;-87
2021/07/15 09:15:11;;;;;;;3.87;2.33;;;;;;;33.42;33.42;100846.47;1651039;85;21221;-86
2021/07/15 09:17:40;;;;;;;3.95;2.00;;;;;;;33.48;32.71;100838.14;1679180;84;21063;-85
2021/07/15 09:20:20;;;;;;;4.40;2.27;;;;;;;33.55;34.28;100837.88;1660764;85;21133;-85
2021/07/15 09:23:08;;;;;;;2.98;2.12;;;;;;;33.61;34.32;100839.52;1637210;86;21074;-85
2021/07/15 12:52:01;;;;;;;3.37;2.33;;;;;;;36.17;30.79;100713.09;1832130;76;22487;-86
2021/07/15 12:54:36;;;;;;;6.33;2.45;;;;;;;36.10;31.08;100705.30;1762826;79;21081;-90
2021/07/15 12:57:09;;;;;;;4.25;2.20;;;;;;;36.10;31.07;100705.85;1768920;79;20930;-85
2021/07/15 12:59:40;;;;;;;4.50;2.50;;;;;;;36.10;28.56;100707.20;1776977;79;21085;-85
2021/07/15 13:02:10;;;;;;;4.20;2.30;;;;;;;35.99;29.54;100707.85;1798437;78;21144;-83
2021/07/15 13:04:38;;;;;;;3.52;2.20;;;;;;;35.77;31.96;100702.86;1747292;80;21182;-84
2021/07/15 13:07:09;;;;;;;3.12;2.17;;;;;;;35.52;28.29;100698.72;1785795;79;21731;-85
2021/07/15 13:15:10;;;;;;;4.80;2.10;;;;;;;35.39;30.15;100699.30;1744672;80;21548;-83
2021/07/15 13:17:46;;;;;;;3.20;2.27;;;;;;;35.35;29.70;100700.97;1788005;79;21026;-88
2021/07/15 13:20:24;;;;;;;3.20;2.40;;;;;;;35.19;30.71;100695.66;1749481;79;21033;-88
2021/07/15 13:22:58;;;;;;;3.55;2.45;;;;;;;35.06;32.58;100702.48;1775418;78;22184;-87
2021/07/15 13:25:27;;;;;;;3.40;2.47;;;;;;;34.95;29.52;100695.49;1805289;78;20991;-88
2021/07/15 13:28:09;;;;;;;7.58;2.40;;;;;;;34.98;29.52;100699.53;1780970;78;21119;-85
2021/07/15 13:30:38;;;;;;;3.65;2.02;;;;;;;34.95;30.44;100698.20;1774504;78;21565;-88
2021/07/15 13:33:22;;;;;;;4.90;2.50;;;;;;;34.89;30.95;100696.61;1705554;80;21018;-87
2021/07/15 13:35:51;;;;;;;3.55;2.08;;;;;;;34.94;33.58;100694.43;1710544;80;23021;-89
2021/07/15 13:38:20;;;;;;;2.55;2.35;;;;;;;35.01;29.14;100697.64;1746126;80;21069;-85
2021/07/15 13:40:49;;;;;;;6.90;2.50;;;;;;;35.04;30.15;100693.83;1729377;80;21074;-84
2021/07/15 13:43:24;;;;;;;10.72;2.33;;;;;;;35.02;29.24;100693.84;1748224;78;21163;-84
2021/07/15 13:45:53;;;;;;;10.53;3.00;;;;;;;35.03;31.79;100692.20;1780854;78;21087;-89
2021/07/15 13:48:26;;;;;;;7.47;2.50;;;;;;;35.09;32.03;100685.44;1780010;77;21069;-91
2021/07/15 13:51:04;;;;;;;4.65;2.60;;;;;;;35.20;31.27;100682.92;1758035;79;21006;-89
2021/07/15 13:53:32;;;;;;;3.30;2.10;;;;;;;35.21;30.43;100682.63;1799389;78;21063;-85
2021/07/15 13:55:59;;;;;;;2.30;1.92;;;;;;;35.27;30.73;100682.06;1784367;79;21096;-88
2021/07/15 13:58:27;;;;;;;4.45;2.35;;;;;;;35.33;31.62;100677.43;1783077;78;20990;-88
2021/07/15 14:00:59;;;;;;;4.03;2.30;;;;;;;35.42;29.91;100682.55;1767292;77;21295;-90
2021/07/15 14:03:27;;;;;;;8.00;2.37;;;;;;;35.58;29.51;100679.73;1788412;77;20986;-87
2021/07/15 14:05:57;;;;;;;3.62;2.60;;;;;;;35.71;29.66;100673.65;1760154;79;21189;-90
2021/07/15 14:08:24;;;;;;;2.33;2.10;;;;;;;35.82;30.10;100664.36;1766321;78;21078;-90
2021/07/15 14:10:54;;;;;;;2.65;2.40;;;;;;;35.95;29.50;100672.93;1736109;80;21114;-87
2021/07/15 14:13:23;;;;;;;4.10;2.20;;;;;;;35.94;28.93;100669.95;1760259;78;21166;-87
2021/07/15 14:15:59;;;;;;;6.03;2.77;;;;;;;35.72;28.34;100664.44;1763428;79;21043;-84
2021/07/15 14:18:29;;;;;;;2.87;2.40;;;;;;;35.54;28.01;100672.16;1804415;77;21117;-89
2021/07/15 14:21:02;;;;;;;4.00;2.50;;;;;;;35.33;29.96;100671.49;1791732;78;21148;-84
2021/07/15 14:23:30;;;;;;;5.28;2.20;;;;;;;35.20;28.43;100665.33;1743361;81;21129;-87
2021/07/15 14:26:04;;;;;;;2.83;2.58;;;;;;;35.17;30.23;100662.65;1735632;81;25506;-91
2021/07/15 14:28:34;;;;;;;2.65;2.30;;;;;;;35.26;30.01;100661.50;1743054;80;21059;-90
2021/07/15 14:31:02;;;;;;;5.62;2.65;;;;;;;35.34;30.29;100661.46;1710107;81;21030;-89
2021/07/15 14:33:31;;;;;;;5.65;2.40;;;;;;;35.42;31.14;100660.06;1756244;79;22025;-90
2021/07/15 14:35:58;;;;;;;7.55;2.42;;;;;;;35.51;30.09;100661.09;1698379;82;21070;-88
2021/07/15 14:38:26;;;;;;;5.58;2.50;;;;;;;35.59;30.78;100654.27;1763653;78;21800;-90
2021/07/15 14:40:53;;;;;;;2.30;2.00;;;;;;;35.64;30.52;100656.92;1762815;79;20997;-91
2021/07/15 14:43:20;;;;;;;10.25;2.50;;;;;;;35.66;30.99;100651.48;1803078;77;21200;-90
2021/07/15 14:45:48;;;;;;;2.70;2.50;;;;;;;35.64;30.70;100650.16;1789168;78;21651;-87
2021/07/15 14:48:15;;;;;;;5.33;2.30;;;;;;;35.57;30.68;100642.38;1766850;79;21106;-92
2021/07/15 14:50:42;;;;;;;3.25;2.33;;;;;;;35.49;31.66;100647.05;1784318;79;21821;-90
2021/07/15 14:53:09;;;;;;;4.83;2.15;;;;;;;35.42;31.37;100646.00;1745596;79;21152;-90
2021/07/15 14:55:36;;;;;;;24.43;3.00;;;;;;;35.37;30.74;100642.77;1749720;79;21100;-87
2021/07/15 14:58:04;;;;;;;2.50;2.25;;;;;;;35.31;32.60;100641.19;1777011;78;21014;-87
2021/07/15 15:00:31;;;;;;;5.72;2.55;;;;;;;35.29;31.54;100642.56;1775831;78;21056;-90
2021/07/15 15:03:00;;;;;;;7.50;2.33;;;;;;;35.25;31.69;100640.14;1782498;78;21537;-85
2021/07/15 15:05:27;;;;;;;5.92;2.62;;;;;;;35.22;30.53;100648.28;1797407;78;21530;-90